»·PEaware :: AAL985 KSAN-KPHX

AAL985 :: KSAN-KPHX

FLIGHT INFORMATION

Flight Status: Arrived
Operator:
American Airlines
More flights by this operator :: More flights under this callsign
Pilot: Vimal G. (13143)
Aircraft: BOEING 737-800
(B738)
More flights by this aircraft type
Origin: KSAN San Diego Intl-Lindbergh
United States
Destination: KPHX Phoenix Sky Harbor Intl
United States
More flights between these airports :: More routes between these airports
Route: ZZOOO2 IPL J18 BZA HOGGZ HYDRR1
File this flight plan on PilotEdge
Remarks: PBN / A1B1C1D1S1S2 DOF / 180516 REG / N806SB EET / KZAB0025 OPR / AAL PER / C RMK / TCAS SIMBRIEF
Altitude:
(Current/Filed)
33,000ft
Speed:
(Current/Filed)
456kts
Departed: 14-May-18 09:07 PM
Arrived: 14-May-18 10:03 PM
Distance/Time
Traveled:
264nm/0:56
Distance/Time
To Go:
Arrived

Flight Plot

Page will automatically refresh every two minutes.

Flight plan parsing failed; only flown route is shown


Map Options




Map Legend


Flown Route
Filed Route
Departure Airport
Arrival Airport
Navaid (VOR, NDB)
Fix

Horizontal Profiles

Position Reports

Time Latitude Longitude Heading Altitude Ground
Speed
14-May-18 20:07 32.734142 -117.203337 270 25ft 0kts
14-May-18 20:08 32.734142 -117.203337 270 25ft 0kts
14-May-18 20:09 32.734142 -117.203337 270 25ft 0kts
14-May-18 20:10 32.734142 -117.203337 270 25ft 0kts
14-May-18 20:11 32.734142 -117.203337 270 25ft 0kts
14-May-18 20:12 32.734142 -117.203337 270 25ft 0kts
14-May-18 20:13 32.734142 -117.203337 270 25ft 0kts
14-May-18 20:14 32.734142 -117.203337 270 25ft 0kts
14-May-18 20:15 32.734142 -117.203337 270 25ft 0kts
14-May-18 20:16 32.734142 -117.203337 270 25ft 0kts
14-May-18 20:17 32.734142 -117.203337 270 25ft 0kts
14-May-18 20:18 32.734142 -117.203337 270 25ft 0kts
14-May-18 20:19 32.734142 -117.203337 270 25ft 0kts
14-May-18 20:20 32.734142 -117.203337 270 25ft 0kts
14-May-18 20:21 32.734142 -117.203337 270 25ft 0kts
14-May-18 20:22 32.734142 -117.203337 270 25ft 0kts
14-May-18 20:23 32.734142 -117.203337 270 25ft 0kts
14-May-18 20:24 32.734142 -117.203337 270 25ft 0kts
14-May-18 20:25 32.734142 -117.203337 270 25ft 0kts
14-May-18 20:26 32.734142 -117.203337 270 25ft 0kts
14-May-18 20:27 32.734142 -117.203337 270 25ft 0kts
14-May-18 20:28 32.734142 -117.203337 270 25ft 0kts
14-May-18 20:29 32.734142 -117.203337 270 25ft 0kts
14-May-18 20:30 32.734142 -117.203337 270 25ft 0kts
14-May-18 20:31 32.734142 -117.203337 270 25ft 0kts
14-May-18 20:32 32.734142 -117.203337 270 25ft 0kts
14-May-18 20:33 32.734142 -117.203337 270 25ft 0kts
14-May-18 20:34 32.734142 -117.203337 270 25ft 0kts
14-May-18 20:35 32.734142 -117.203337 270 25ft 0kts
14-May-18 20:36 32.734142 -117.203337 270 25ft 0kts
14-May-18 20:37 32.734142 -117.203337 270 25ft 0kts
14-May-18 20:38 32.734142 -117.203337 270 25ft 0kts
14-May-18 20:39 32.734142 -117.203337 270 25ft 0kts
14-May-18 20:40 32.734142 -117.203337 270 25ft 0kts
14-May-18 20:41 32.734142 -117.203337 270 25ft 0kts
14-May-18 20:42 32.734142 -117.203337 270 25ft 0kts
14-May-18 20:43 32.734142 -117.203337 270 25ft 0kts
14-May-18 20:44 32.734142 -117.203337 270 25ft 0kts
14-May-18 20:45 32.734142 -117.203337 270 25ft 0kts
14-May-18 20:46 32.734142 -117.203337 270 25ft 0kts
14-May-18 20:47 32.734142 -117.203337 270 25ft 0kts
14-May-18 20:48 32.734142 -117.203337 270 25ft 0kts
14-May-18 20:49 32.734142 -117.203337 270 25ft 0kts
14-May-18 20:50 32.734142 -117.203337 270 25ft 0kts
14-May-18 20:51 32.734074 -117.202861 316 25ft 2kts
14-May-18 20:52 32.733759 -117.202794 16 25ft 0kts
14-May-18 20:53 32.733759 -117.202794 16 25ft 0kts
14-May-18 20:54 32.733759 -117.202794 16 25ft 0kts
14-May-18 20:55 32.733759 -117.202794 16 25ft 0kts
14-May-18 20:56 32.733762 -117.202793 16 25ft 0kts
14-May-18 20:57 32.735419 -117.201705 98 25ft 8kts
14-May-18 20:58 32.734739 -117.198897 105 25ft 9kts
14-May-18 20:59 32.734016 -117.195762 105 25ft 10kts
14-May-18 21:00 32.733142 -117.192241 105 25ft 11kts
14-May-18 21:01 32.732200 -117.188306 105 25ft 13kts
14-May-18 21:02 32.731140 -117.184003 105 25ft 13kts
14-May-18 21:03 32.730035 -117.179289 107 25ft 16kts
14-May-18 21:04 32.729510 -117.176792 77 25ft 0kts
14-May-18 21:05 32.729510 -117.176792 77 25ft 0kts
14-May-18 21:06 32.729573 -117.176521 72 25ft 6kts
14-May-18 21:07 32.732146 -117.183913 286 25ft 116kts
14-May-18 21:08 32.743432 -117.236747 289 1990ft 202kts
14-May-18 21:09 32.754033 -117.309411 239 4562ft 262kts
14-May-18 21:10 32.686198 -117.325313 151 7972ft 288kts
14-May-18 21:11 32.634229 -117.249665 119 10744ft 320kts
14-May-18 21:12 32.619902 -117.141093 96 13465ft 346kts
14-May-18 21:13 32.610359 -117.025120 97 16207ft 362kts
14-May-18 21:14 32.601243 -116.904140 86 18722ft 379kts
14-May-18 21:15 32.626460 -116.780215 78 20898ft 397kts
14-May-18 21:16 32.641391 -116.648381 84 22853ft 412kts
14-May-18 21:17 32.654977 -116.510846 85 24648ft 427kts
14-May-18 21:18 32.668659 -116.369290 85 26268ft 441kts
14-May-18 21:19 32.682550 -116.224354 85 27631ft 455kts
14-May-18 21:20 32.696724 -116.073975 86 28927ft 467kts
14-May-18 21:21 32.711140 -115.919448 86 30415ft 470kts
14-May-18 21:22 32.725327 -115.765222 86 31846ft 470kts
14-May-18 21:23 32.739294 -115.610987 86 32903ft 478kts
14-May-18 21:24 32.750782 -115.448467 91 32909ft 509kts
14-May-18 21:25 32.754726 -115.281796 91 32893ft 510kts
14-May-18 21:26 32.758662 -115.113289 91 32900ft 515kts
14-May-18 21:27 32.762367 -114.942434 92 32898ft 523kts
14-May-18 21:28 32.765311 -114.770248 92 32894ft 522kts
14-May-18 21:29 32.768020 -114.597762 92 32891ft 523kts
14-May-18 21:30 32.770481 -114.425531 92 32890ft 522kts
14-May-18 21:31 32.772597 -114.273044 93 32884ft 522kts
14-May-18 21:32 32.774762 -114.101163 93 32718ft 525kts
14-May-18 21:33 32.788675 -113.932476 84 29646ft 490kts
14-May-18 21:34 32.806303 -113.774193 84 26688ft 474kts
14-May-18 21:35 32.852083 -113.636023 46 24906ft 448kts
14-May-18 21:36 32.935063 -113.526018 45 24314ft 454kts
14-May-18 21:37 33.015220 -113.418693 46 21768ft 427kts
14-May-18 21:38 33.090879 -113.316890 48 20490ft 416kts
14-May-18 21:39 33.158391 -113.225833 49 19407ft 403kts
14-May-18 21:40 33.231237 -113.127222 49 18244ft 383kts
14-May-18 21:41 33.274340 -113.021116 89 17257ft 361kts
14-May-18 21:42 33.277904 -112.903910 91 16220ft 343kts
14-May-18 21:43 33.281763 -112.793852 87 15274ft 333kts
14-May-18 21:44 33.292217 -112.685582 87 14284ft 325kts
14-May-18 21:45 33.302404 -112.579106 87 13337ft 320kts
14-May-18 21:46 33.312230 -112.474413 87 12397ft 315kts
14-May-18 21:47 33.321780 -112.371342 87 11468ft 311kts
14-May-18 21:48 33.330434 -112.276820 87 10607ft 302kts
14-May-18 21:49 33.339233 -112.181674 87 9768ft 279kts
14-May-18 21:50 33.347253 -112.092935 87 8994ft 262kts
14-May-18 21:51 33.348470 -112.008489 90 7920ft 262kts
14-May-18 21:52 33.350654 -111.925359 90 6998ft 256kts
14-May-18 21:53 33.353190 -111.843676 90 7010ft 245kts
14-May-18 21:54 33.355700 -111.761745 90 6234ft 254kts
14-May-18 21:55 33.376940 -111.686412 29 5028ft 244kts
14-May-18 21:56 33.426794 -111.701180 303 5038ft 186kts
14-May-18 21:57 33.445915 -111.752936 256 4961ft 158kts
14-May-18 21:58 33.441431 -111.804226 264 4287ft 152kts
14-May-18 21:59 33.440665 -111.852805 267 3462ft 153kts
14-May-18 22:00 33.440686 -111.903210 268 2624ft 150kts
14-May-18 22:01 33.440772 -111.952330 268 1827ft 147kts
14-May-18 22:02 33.440831 -112.000152 269 1142ft 117kts
14-May-18 22:03 33.439740 -112.008502 90 1142ft 18kts
14-May-18 22:04 33.439051 -112.003784 87 1142ft 14kts
14-May-18 22:05 33.437799 -112.000467 188 1142ft 7kts
14-May-18 22:06 33.437543 -112.001265 269 1142ft 0kts
14-May-18 22:07 33.437543 -112.001264 269 1142ft 0kts
14-May-18 22:08 33.437543 -112.001264 269 1142ft 0kts
14-May-18 22:09 33.437543 -112.001264 269 1142ft 0kts
14-May-18 22:10 33.437543 -112.001264 269 1142ft 0kts
14-May-18 22:11 33.437543 -112.001264 269 1142ft 0kts
14-May-18 22:12 33.437543 -112.001264 269 1142ft 0kts
14-May-18 22:13 33.437543 -112.001264 269 1142ft 0kts

Navigation Log

Ident Type
Flight plan parsing failed, navigation log unavailable